createdAt,value
2022-11-17T00:02:07.303Z,102640.34
2022-11-17T00:04:20.671Z,102635.06
2022-11-17T00:06:33.233Z,102632.85
2022-11-17T00:08:45.937Z,102629.98
2022-11-17T00:10:58.422Z,102625.92
2022-11-17T00:13:28.876Z,102625.70
2022-11-17T00:15:45.185Z,102620.65
2022-11-17T00:18:11.769Z,102620.95
2022-11-17T00:20:41.349Z,102618.80
2022-11-17T00:22:54.339Z,102621.48
2022-11-17T00:25:07.440Z,102617.84
2022-11-17T00:27:21.748Z,102617.55
2022-11-17T00:29:39.160Z,102610.31
2022-11-17T00:32:08.909Z,102611.70
2022-11-17T00:34:23.389Z,102607.98
2022-11-17T00:36:37.172Z,102609.20
2022-11-17T00:38:50.248Z,102603.60
2022-11-17T00:41:04.148Z,102607.40
2022-11-17T00:43:17.382Z,102605.96
2022-11-17T00:45:30.307Z,102609.38
2022-11-17T00:47:44.137Z,102611.36
2022-11-17T00:49:57.284Z,102610.34
2022-11-17T00:52:10.906Z,102612.52
2022-11-17T00:54:24.197Z,102612.61
2022-11-17T00:56:37.300Z,102607.60
2022-11-17T00:58:50.146Z,102608.90
2022-11-17T01:01:03.098Z,102603.67
2022-11-17T01:03:15.886Z,102603.70
2022-11-17T01:05:32.803Z,102602.23
2022-11-17T01:07:46.217Z,102598.93
2022-11-17T01:09:58.986Z,102596.98
2022-11-17T01:12:12.220Z,102589.47
2022-11-17T01:14:27.186Z,102590.06
2022-11-17T01:16:41.129Z,102594.19
2022-11-17T01:18:56.244Z,102589.23
2022-11-17T01:21:14.860Z,102588.16
2022-11-17T01:23:27.938Z,102587.66
2022-11-17T01:25:42.000Z,102588.88
2022-11-17T01:27:55.051Z,102590.94
2022-11-17T01:30:08.295Z,102591.09
2022-11-17T01:32:21.275Z,102586.96
2022-11-17T01:34:33.984Z,102586.97
2022-11-17T01:37:03.966Z,102584.20
2022-11-17T01:39:17.380Z,102590.08
2022-11-17T01:41:31.308Z,102589.68
2022-11-17T01:43:51.698Z,102592.62
2022-11-17T01:46:04.646Z,102592.23
2022-11-17T01:48:20.314Z,102595.09
2022-11-17T01:50:37.486Z,102594.77
2022-11-17T01:52:52.220Z,102595.34
2022-11-17T01:55:07.826Z,102593.02
2022-11-17T01:57:26.561Z,102587.57
2022-11-17T01:59:44.134Z,102587.59
2022-11-17T02:01:58.949Z,102586.85
2022-11-17T02:04:18.891Z,102576.65
2022-11-17T02:06:38.034Z,102576.95
2022-11-17T02:08:55.261Z,102571.11
2022-11-17T02:11:15.535Z,102572.05
2022-11-17T02:13:31.831Z,102567.66
2022-11-17T02:15:45.322Z,102566.69
2022-11-17T02:18:01.393Z,102564.59
2022-11-17T02:20:19.605Z,102567.27
2022-11-17T02:22:59.940Z,102571.85
2022-11-17T02:25:43.010Z,102576.25
2022-11-17T02:28:11.679Z,102584.95
2022-11-17T02:30:27.510Z,102581.48
2022-11-17T02:32:50.245Z,102578.48
2022-11-17T02:35:12.909Z,102580.67
2022-11-17T02:37:35.299Z,102577.91
2022-11-17T02:39:57.159Z,102569.45
2022-11-17T02:42:17.630Z,102559.34
2022-11-17T02:44:37.797Z,102548.87
2022-11-17T02:46:56.904Z,102548.16
2022-11-17T02:49:15.787Z,102546.83
2022-11-17T02:51:30.620Z,102553.99
2022-11-17T02:53:44.647Z,102556.71
2022-11-17T02:56:02.556Z,102547.15
2022-11-17T02:58:18.753Z,102541.08
2022-11-17T03:00:34.582Z,102538.70
2022-11-17T03:03:09.539Z,102537.34
2022-11-17T03:05:30.911Z,102538.96
2022-11-17T03:08:01.265Z,102543.69
2022-11-17T03:10:20.153Z,102543.58
2022-11-17T03:12:41.979Z,102546.78
2022-11-17T03:15:01.721Z,102547.27
2022-11-17T03:17:22.547Z,102546.23
2022-11-17T03:19:42.505Z,102546.84
2022-11-17T03:22:00.371Z,102551.88
2022-11-17T03:24:19.281Z,102550.03
2022-11-17T03:26:37.314Z,102547.98
2022-11-17T03:28:51.209Z,102547.60
2022-11-17T03:31:05.163Z,102543.64
2022-11-17T03:33:21.796Z,102535.84
2022-11-17T03:35:38.260Z,102533.34
2022-11-17T03:37:54.963Z,102531.05
2022-11-17T03:40:11.937Z,102525.06
2022-11-17T03:42:30.583Z,102522.45
2022-11-17T03:44:46.832Z,102523.85
2022-11-17T03:47:02.207Z,102521.58
2022-11-17T03:49:21.134Z,102524.28
2022-11-17T03:51:35.710Z,102522.12
2022-11-17T03:53:49.110Z,102523.42
2022-11-17T03:56:06.304Z,102510.95
2022-11-17T03:58:23.358Z,102520.56
2022-11-17T04:00:36.912Z,102521.38
2022-11-17T04:02:52.226Z,102521.85
2022-11-17T04:05:10.933Z,102519.20
2022-11-17T04:07:23.997Z,102517.29
2022-11-17T04:09:38.450Z,102514.10
2022-11-17T04:12:23.257Z,102511.23
2022-11-17T04:14:52.444Z,102519.78
2022-11-17T04:17:05.145Z,102525.80
2022-11-17T04:19:17.919Z,102512.84
2022-11-17T04:21:30.792Z,102520.70
2022-11-17T04:23:43.643Z,102521.80
2022-11-17T04:26:13.995Z,102522.82
2022-11-17T04:28:40.475Z,102524.12
2022-11-17T04:30:53.195Z,102524.71
2022-11-17T04:33:05.967Z,102523.57
2022-11-17T04:35:18.869Z,102529.85
2022-11-17T04:37:31.308Z,102535.65
2022-11-17T04:39:43.956Z,102535.38
2022-11-17T04:42:03.180Z,102540.70
2022-11-17T04:44:18.538Z,102540.25
2022-11-17T04:46:33.039Z,102538.30
2022-11-17T04:48:46.390Z,102538.16
2022-11-17T04:51:02.150Z,102532.83
2022-11-17T04:53:15.105Z,102536.35
2022-11-17T04:55:27.851Z,102528.07
2022-11-17T04:57:41.768Z,102530.94
2022-11-17T04:59:54.685Z,102536.01
2022-11-17T05:02:07.296Z,102535.19
2022-11-17T05:04:43.471Z,102539.75
2022-11-17T05:06:56.505Z,102540.38
2022-11-17T05:09:11.439Z,102541.36
2022-11-17T05:11:41.122Z,102537.23
2022-11-17T05:13:54.653Z,102540.11
2022-11-17T05:16:24.276Z,102539.56
2022-11-17T05:18:36.955Z,102538.63
2022-11-17T05:20:49.760Z,102546.38
2022-11-17T05:23:19.480Z,102546.16
2022-11-17T05:25:32.172Z,102547.18
2022-11-17T05:27:44.859Z,102546.74
2022-11-17T05:29:58.026Z,102548.38
2022-11-17T05:32:10.822Z,102553.33
2022-11-17T05:34:24.224Z,102552.02
2022-11-17T05:36:37.273Z,102545.37
2022-11-17T05:38:50.749Z,102544.71
2022-11-17T05:41:03.593Z,102547.48
2022-11-17T05:43:16.396Z,102547.85
2022-11-17T05:45:28.873Z,102549.64
2022-11-17T05:47:42.106Z,102549.27
2022-11-17T05:49:54.978Z,102548.45
2022-11-17T05:52:07.779Z,102549.05
2022-11-17T05:54:20.732Z,102546.35
2022-11-17T05:56:46.438Z,102548.67
2022-11-17T05:59:05.358Z,102545.21
2022-11-17T06:01:21.750Z,102541.73
2022-11-17T06:03:38.571Z,102540.97
2022-11-17T06:05:52.760Z,102539.49
2022-11-17T06:08:05.752Z,102534.67
2022-11-17T06:10:19.112Z,102534.36
2022-11-17T06:12:32.606Z,102534.13
2022-11-17T06:14:48.294Z,102531.52
2022-11-17T06:17:07.654Z,102524.90
2022-11-17T06:19:26.123Z,102525.05
2022-11-17T06:22:09.818Z,102521.92
2022-11-17T06:24:16.404Z,102515.64
2022-11-17T06:26:30.495Z,102516.61
2022-11-17T06:28:46.870Z,102508.16
2022-11-17T06:31:00.120Z,102523.36
2022-11-17T06:33:15.132Z,102521.30
2022-11-17T06:35:30.119Z,102514.86
2022-11-17T06:37:42.729Z,102519.61
2022-11-17T06:39:55.649Z,102514.68
2022-11-17T06:42:08.857Z,102521.58
2022-11-17T06:44:21.341Z,102517.45
2022-11-17T06:46:39.106Z,102520.05
2022-11-17T06:48:52.234Z,102527.36
2022-11-17T06:51:05.374Z,102524.59
2022-11-17T06:53:18.120Z,102525.18
2022-11-17T06:55:32.328Z,102528.71
2022-11-17T06:57:48.898Z,102528.80
2022-11-17T07:00:05.874Z,102525.71
2022-11-17T07:02:19.171Z,102529.17
2022-11-17T07:04:32.573Z,102529.33
2022-11-17T07:06:45.578Z,102524.25
2022-11-17T07:08:59.614Z,102522.41
2022-11-17T07:11:14.638Z,102529.30
2022-11-17T07:13:28.260Z,102531.58
2022-11-17T07:15:40.912Z,102529.56
2022-11-17T07:17:53.803Z,102530.11
2022-11-17T07:20:07.094Z,102530.70
2022-11-17T07:22:19.707Z,102528.36
2022-11-17T07:24:32.442Z,102531.56
2022-11-17T07:26:45.290Z,102531.71
2022-11-17T07:28:57.986Z,102538.05
2022-11-17T07:31:12.163Z,102537.55
2022-11-17T07:33:25.098Z,102538.30
2022-11-17T07:35:38.620Z,102541.16
2022-11-17T07:37:51.270Z,102540.89
2022-11-17T07:40:03.778Z,102541.27
2022-11-17T07:42:16.496Z,102547.88
2022-11-17T07:44:35.463Z,102562.19
2022-11-17T07:46:48.653Z,102563.80
2022-11-17T07:49:01.298Z,102563.86
2022-11-17T07:51:15.183Z,102569.44
2022-11-17T07:53:28.003Z,102568.29
2022-11-17T07:55:40.550Z,102570.23
2022-11-17T07:57:57.224Z,102568.24
2022-11-17T08:00:11.097Z,102568.62
2022-11-17T08:02:26.854Z,102568.58
2022-11-17T08:04:39.884Z,102566.52
2022-11-17T08:06:53.119Z,102571.70
2022-11-17T08:09:07.469Z,102573.26
2022-11-17T08:11:20.508Z,102574.59
2022-11-17T08:13:33.072Z,102571.07
2022-11-17T08:15:46.013Z,102566.91
2022-11-17T08:18:02.129Z,102565.61
2022-11-17T08:20:17.265Z,102560.06
2022-11-17T08:22:30.229Z,102560.83
2022-11-17T08:24:42.915Z,102560.42
2022-11-17T08:26:56.523Z,102558.41
2022-11-17T08:29:09.260Z,102556.35
2022-11-17T08:31:22.191Z,102554.27
2022-11-17T08:33:34.977Z,102547.61
2022-11-17T08:35:47.876Z,102542.56
2022-11-17T08:38:01.241Z,102550.45
2022-11-17T08:40:15.992Z,102544.43
2022-11-17T08:42:28.886Z,102542.69
2022-11-17T08:44:41.515Z,102544.05
2022-11-17T08:46:54.947Z,102544.38
2022-11-17T08:49:08.429Z,102534.79
2022-11-17T08:51:20.941Z,102536.94
2022-11-17T08:53:34.093Z,102537.90
2022-11-17T08:55:47.385Z,102536.75
2022-11-17T08:58:00.279Z,102540.81
2022-11-17T09:00:15.970Z,102543.36
2022-11-17T09:02:29.154Z,102541.29
2022-11-17T09:04:41.943Z,102535.89
2022-11-17T09:06:55.193Z,102538.65
2022-11-17T09:09:08.402Z,102535.35
2022-11-17T09:11:21.879Z,102539.19
2022-11-17T09:13:37.050Z,102530.73
2022-11-17T09:15:49.754Z,102530.30
2022-11-17T09:18:04.277Z,102531.11
2022-11-17T09:20:17.896Z,102531.48
2022-11-17T09:22:30.977Z,102530.77
2022-11-17T09:24:43.637Z,102530.73
2022-11-17T09:26:58.603Z,102532.89
2022-11-17T09:29:11.505Z,102528.17
2022-11-17T09:31:25.719Z,102525.24
2022-11-17T09:33:38.718Z,102522.96
2022-11-17T09:35:51.953Z,102525.40
2022-11-17T09:38:06.842Z,102524.15
2022-11-17T09:40:22.384Z,102526.60
2022-11-17T09:42:40.883Z,102530.76
2022-11-17T09:44:58.276Z,102531.91
2022-11-17T09:47:17.547Z,102541.81
2022-11-17T09:49:41.784Z,102548.45
2022-11-17T09:51:59.848Z,102550.14
2022-11-17T09:54:17.572Z,102560.30
2022-11-17T09:56:32.122Z,102558.57
2022-11-17T09:58:49.974Z,102559.33
2022-11-17T10:01:04.023Z,102560.20
2022-11-17T10:03:23.286Z,102557.02
2022-11-17T10:05:37.726Z,102551.98
2022-11-17T10:07:54.765Z,102556.06
2022-11-17T10:10:15.481Z,102545.40
2022-11-17T10:12:36.544Z,102545.50
2022-11-17T10:14:49.324Z,102538.13
2022-11-17T10:17:03.297Z,102540.66
2022-11-17T10:19:21.116Z,102544.34
2022-11-17T10:21:36.626Z,102539.41
2022-11-17T10:23:57.016Z,102546.55
2022-11-17T10:26:15.345Z,102542.92
2022-11-17T10:28:33.576Z,102548.40
2022-11-17T10:30:58.710Z,102555.83
2022-11-17T10:33:16.323Z,102558.27
2022-11-17T10:35:31.452Z,102555.94
2022-11-17T10:37:47.336Z,102560.98
2022-11-17T10:40:25.442Z,102560.77
2022-11-17T10:42:39.093Z,102557.03
2022-11-17T10:44:53.698Z,102558.04
2022-11-17T10:47:09.044Z,102558.52
2022-11-17T10:49:33.744Z,102547.90
2022-11-17T10:51:46.404Z,102546.61
2022-11-17T10:54:10.257Z,102544.39
2022-11-17T10:56:26.001Z,102539.23
2022-11-17T10:58:58.063Z,102525.19
2022-11-17T11:01:10.607Z,102534.98
2022-11-17T11:03:25.637Z,102533.64
2022-11-17T11:06:07.085Z,102542.92
2022-11-17T11:08:52.727Z,102538.31
2022-11-17T11:11:06.628Z,102542.41
2022-11-17T11:13:45.350Z,102545.11
2022-11-17T11:15:58.203Z,102556.67
2022-11-17T11:18:16.444Z,102554.70
2022-11-17T11:20:40.397Z,102556.42
2022-11-17T11:23:02.680Z,102558.84
2022-11-17T11:25:30.201Z,102553.03
2022-11-17T11:28:13.133Z,102553.19
2022-11-17T11:30:26.551Z,102549.33
2022-11-17T11:32:51.265Z,102557.87
2022-11-17T11:35:22.750Z,102556.86
2022-11-17T11:37:43.163Z,102564.73
2022-11-17T11:40:06.334Z,102562.38
2022-11-17T11:42:46.111Z,102555.63
2022-11-17T11:45:21.745Z,102559.12
2022-11-17T11:47:46.306Z,102566.61
2022-11-17T11:50:05.722Z,102563.14
2022-11-17T11:52:23.832Z,102563.02
2022-11-17T11:54:50.562Z,102565.77
2022-11-17T11:57:04.389Z,102563.92
2022-11-17T11:59:23.761Z,102564.95
2022-11-17T12:01:45.808Z,102561.00
2022-11-17T12:04:10.432Z,102560.95
2022-11-17T12:06:44.524Z,102559.77
2022-11-17T12:09:05.210Z,102559.16
2022-11-17T12:11:32.753Z,102568.30
2022-11-17T12:13:52.732Z,102564.95
2022-11-17T12:16:23.123Z,102560.20
2022-11-17T12:18:38.861Z,102562.25
2022-11-17T12:21:16.521Z,102559.13
2022-11-17T12:23:49.743Z,102554.27
2022-11-17T12:26:04.213Z,102549.98
2022-11-17T12:28:38.786Z,102559.83
2022-11-17T12:31:05.099Z,102561.61
2022-11-17T12:33:22.467Z,102559.00
2022-11-17T12:35:36.053Z,102549.27
2022-11-17T12:37:48.745Z,102554.06
2022-11-17T12:40:06.902Z,102551.70
2022-11-17T12:42:19.832Z,102550.63
2022-11-17T12:44:59.191Z,102556.14
2022-11-17T12:47:20.265Z,102552.21
2022-11-17T12:49:44.917Z,102555.06
2022-11-17T12:52:01.662Z,102551.49
2022-11-17T12:54:24.312Z,102545.55
2022-11-17T12:56:59.587Z,102536.07
2022-11-17T12:59:48.415Z,102531.57
2022-11-17T13:02:08.683Z,102531.79
2022-11-17T13:04:26.581Z,102531.18
2022-11-17T13:06:39.005Z,102520.41
2022-11-17T13:09:03.535Z,102515.39
2022-11-17T13:11:21.732Z,102506.42
2022-11-17T13:13:37.001Z,102512.10
2022-11-17T13:15:51.949Z,102531.31
2022-11-17T13:18:11.584Z,102525.48
2022-11-17T13:20:30.046Z,102522.79
2022-11-17T13:22:42.878Z,102514.56
2022-11-17T13:24:56.009Z,102512.62
2022-11-17T13:27:19.088Z,102514.52
2022-11-17T13:29:31.818Z,102512.90
2022-11-17T13:31:44.914Z,102516.42
2022-11-17T13:34:08.896Z,102517.84
2022-11-17T13:36:26.025Z,102514.16
2022-11-17T13:38:38.987Z,102513.71
2022-11-17T13:40:52.629Z,102509.49
2022-11-17T13:43:06.290Z,102515.23
2022-11-17T13:45:20.677Z,102527.33
2022-11-17T13:47:48.832Z,102524.50
2022-11-17T13:50:21.764Z,102521.69
2022-11-17T13:52:46.552Z,102529.20
2022-11-17T13:54:59.968Z,102547.87
2022-11-17T13:57:25.314Z,102536.24
2022-11-17T13:59:40.687Z,102541.75
2022-11-17T14:02:13.992Z,102535.70
2022-11-17T14:04:28.189Z,102525.56
2022-11-17T14:06:58.332Z,102539.40
2022-11-17T14:09:13.046Z,102547.41
2022-11-17T14:11:26.550Z,102528.64
2022-11-17T14:13:45.207Z,102531.56
2022-11-17T14:16:03.641Z,102532.75
2022-11-17T14:18:30.207Z,102531.77
2022-11-17T14:20:42.777Z,102538.23
2022-11-17T14:23:09.618Z,102537.27
2022-11-17T14:25:22.553Z,102537.20
2022-11-17T14:27:49.097Z,102539.22
2022-11-17T14:30:04.810Z,102537.61
2022-11-17T14:32:18.108Z,102546.59
2022-11-17T14:34:31.149Z,102559.30
2022-11-17T14:36:44.823Z,102555.91
2022-11-17T14:38:57.906Z,102560.41
2022-11-17T14:41:11.615Z,102557.17
2022-11-17T14:43:24.869Z,102551.33
2022-11-17T14:45:38.139Z,102542.95
2022-11-17T14:47:51.490Z,102555.02
2022-11-17T14:50:04.923Z,102558.21
2022-11-17T14:52:17.697Z,102552.15
2022-11-17T14:54:31.085Z,102557.95
2022-11-17T14:56:43.924Z,102550.66
2022-11-17T14:58:59.919Z,102550.98
2022-11-17T15:01:18.509Z,102557.48
2022-11-17T15:03:31.955Z,102563.98
2022-11-17T15:05:49.059Z,102560.09
2022-11-17T15:08:04.324Z,102563.25
2022-11-17T15:10:18.357Z,102559.34
2022-11-17T15:12:32.184Z,102555.91
2022-11-17T15:14:44.938Z,102561.55
2022-11-17T15:16:58.154Z,102564.07
2022-11-17T15:19:11.172Z,102563.33
2022-11-17T15:21:23.851Z,102559.94
2022-11-17T15:23:39.254Z,102567.02
2022-11-17T15:25:52.527Z,102564.02
2022-11-17T15:28:05.082Z,102565.66
2022-11-17T15:30:19.653Z,102565.98
2022-11-17T15:32:32.685Z,102571.01
2022-11-17T15:34:45.716Z,102575.50
2022-11-17T15:36:58.665Z,102575.54
2022-11-17T15:39:11.741Z,102587.34
2022-11-17T15:41:27.361Z,102576.81
2022-11-17T15:43:45.653Z,102592.30
2022-11-17T15:46:02.516Z,102591.73
2022-11-17T15:48:18.712Z,102580.83
2022-11-17T15:50:31.995Z,102594.81
2022-11-17T15:55:18.611Z,102594.55
2022-11-17T15:57:34.061Z,102602.27
2022-11-17T15:59:46.732Z,102596.48
2022-11-17T16:01:59.557Z,102603.12
2022-11-17T16:04:14.059Z,102606.72
2022-11-17T16:06:27.020Z,102606.20
2022-11-17T16:08:40.505Z,102589.73
2022-11-17T16:10:53.151Z,102597.58
2022-11-17T16:13:06.314Z,102593.33
2022-11-17T16:15:19.292Z,102596.70
2022-11-17T16:17:32.114Z,102593.69
2022-11-17T16:19:45.129Z,102609.34
2022-11-17T16:21:57.929Z,102617.44
2022-11-17T16:24:13.768Z,102619.39
2022-11-17T16:26:28.613Z,102635.91
2022-11-17T16:28:41.519Z,102640.96
2022-11-17T16:30:54.593Z,102647.84
2022-11-17T16:33:12.361Z,102657.21
2022-11-17T16:35:25.431Z,102658.94
2022-11-17T16:37:38.120Z,102661.16
2022-11-17T16:39:50.898Z,102655.72
2022-11-17T16:42:03.721Z,102648.57
2022-11-17T16:44:19.063Z,102657.71
2022-11-17T16:46:33.268Z,102651.14
2022-11-17T16:48:46.041Z,102649.55
2022-11-17T16:50:58.932Z,102650.32
2022-11-17T16:53:11.796Z,102652.45
2022-11-17T16:55:24.962Z,102660.44
2022-11-17T16:57:38.656Z,102660.38
2022-11-17T16:59:51.352Z,102662.62
2022-11-17T17:02:04.122Z,102678.02
2022-11-17T17:04:17.121Z,102673.91
2022-11-17T17:06:30.541Z,102675.71
2022-11-17T17:08:43.762Z,102683.09
2022-11-17T17:10:56.637Z,102683.07
2022-11-17T17:13:10.742Z,102679.25
2022-11-17T17:15:23.530Z,102682.27
2022-11-17T17:17:37.310Z,102677.45
2022-11-17T17:19:49.906Z,102685.67
2022-11-17T17:22:02.709Z,102688.88
2022-11-17T17:24:15.825Z,102699.80
2022-11-17T17:26:30.332Z,102702.09
2022-11-17T17:28:45.603Z,102712.92
2022-11-17T17:31:03.135Z,102723.20
2022-11-17T17:33:15.947Z,102725.86
2022-11-17T17:35:28.748Z,102725.65
2022-11-17T17:37:41.614Z,102734.21
2022-11-17T17:39:55.485Z,102728.71
2022-11-17T17:42:09.178Z,102728.51
2022-11-17T17:44:22.704Z,102728.77
2022-11-17T17:46:37.364Z,102733.73
2022-11-17T17:48:50.755Z,102719.88
2022-11-17T17:51:10.159Z,102727.55
2022-11-17T17:53:22.887Z,102728.98
2022-11-17T17:55:38.411Z,102724.46
2022-11-17T17:57:50.833Z,102707.23
2022-11-17T18:00:03.483Z,102720.05
2022-11-17T18:02:17.063Z,102716.82
2022-11-17T18:04:30.566Z,102704.17
2022-11-17T18:06:44.895Z,102714.58
2022-11-17T18:08:58.042Z,102708.58
2022-11-17T18:11:13.690Z,102700.42
2022-11-17T18:13:26.211Z,102713.09
2022-11-17T18:15:41.663Z,102697.27
2022-11-17T18:17:54.578Z,102703.98
2022-11-17T18:20:07.642Z,102705.65
2022-11-17T18:22:20.843Z,102707.09
2022-11-17T18:24:34.918Z,102705.77
2022-11-17T18:26:47.534Z,102702.02
2022-11-17T18:29:02.098Z,102697.29
2022-11-17T18:31:15.754Z,102690.08
2022-11-17T18:33:28.339Z,102693.14
2022-11-17T18:35:41.643Z,102690.05
2022-11-17T18:37:54.790Z,102691.77
2022-11-17T18:40:07.904Z,102706.27
2022-11-17T18:42:21.582Z,102698.19
2022-11-17T18:44:34.428Z,102691.15
2022-11-17T18:46:47.295Z,102707.39
2022-11-17T18:49:00.621Z,102708.22
2022-11-17T18:51:19.829Z,102703.09
2022-11-17T18:53:35.170Z,102706.45
2022-11-17T18:55:47.988Z,102713.89
2022-11-17T18:58:00.775Z,102709.42
2022-11-17T19:00:15.796Z,102707.95
2022-11-17T19:02:29.666Z,102705.16
2022-11-17T19:04:42.294Z,102703.96
2022-11-17T19:06:56.392Z,102696.86
2022-11-17T19:09:09.586Z,102687.94
2022-11-17T19:11:24.316Z,102705.79
2022-11-17T19:13:38.563Z,102683.89
2022-11-17T19:15:52.289Z,102685.09
2022-11-17T19:18:05.297Z,102692.14
2022-11-17T19:20:20.332Z,102679.80
2022-11-17T19:22:33.926Z,102678.31
2022-11-17T19:24:46.612Z,102684.91
2022-11-17T19:26:59.537Z,102681.02
2022-11-17T19:29:17.044Z,102698.50
2022-11-17T19:31:30.533Z,102678.02
2022-11-17T19:33:44.433Z,102669.10
2022-11-17T19:35:57.266Z,102685.39
2022-11-17T19:38:10.178Z,102665.27
2022-11-17T19:40:23.523Z,102691.23
2022-11-17T19:42:36.189Z,102669.39
2022-11-17T19:44:48.899Z,102653.63
2022-11-17T19:47:03.806Z,102659.08
2022-11-17T19:49:17.368Z,102665.09
2022-11-17T19:51:32.075Z,102662.21
2022-11-17T19:53:45.997Z,102662.98
2022-11-17T19:55:58.939Z,102666.43
2022-11-17T19:58:12.967Z,102661.69
2022-11-17T20:00:26.612Z,102670.90
2022-11-17T20:02:39.458Z,102666.42
2022-11-17T20:04:52.203Z,102652.96
2022-11-17T20:07:04.978Z,102668.37
2022-11-17T20:09:19.024Z,102657.34
2022-11-17T20:11:32.729Z,102657.82
2022-11-17T20:13:46.943Z,102648.86
2022-11-17T20:16:10.331Z,102640.01
2022-11-17T20:18:24.993Z,102646.58
2022-11-17T20:20:37.841Z,102636.16
2022-11-17T20:22:50.320Z,102635.64
2022-11-17T20:25:03.820Z,102634.23
2022-11-17T20:27:16.731Z,102653.59
2022-11-17T20:29:29.671Z,102644.10
2022-11-17T20:31:42.572Z,102641.79
2022-11-17T20:33:57.469Z,102621.46
2022-11-17T20:36:12.050Z,102619.56
2022-11-17T20:38:24.535Z,102613.10
2022-11-17T20:40:39.475Z,102628.03
2022-11-17T20:42:52.346Z,102615.61
2022-11-17T20:45:04.925Z,102621.17
2022-11-17T20:47:17.713Z,102625.20
2022-11-17T20:49:31.762Z,102616.43
2022-11-17T20:51:44.779Z,102631.52
2022-11-17T20:53:57.569Z,102606.27
2022-11-17T20:56:12.832Z,102622.08
2022-11-17T20:58:25.652Z,102616.55
2022-11-17T21:00:38.726Z,102614.58
2022-11-17T21:02:51.632Z,102604.52
2022-11-17T21:05:04.334Z,102601.56
2022-11-17T21:07:17.444Z,102620.20
2022-11-17T21:09:30.562Z,102607.23
2022-11-17T21:12:01.708Z,102605.86
2022-11-17T21:14:16.052Z,102615.20
2022-11-17T21:16:29.022Z,102604.36
2022-11-17T21:18:43.194Z,102592.44
2022-11-17T21:20:59.114Z,102588.35
2022-11-17T21:23:11.879Z,102590.05
2022-11-17T21:25:25.158Z,102593.05
2022-11-17T21:27:38.032Z,102586.99
2022-11-17T21:29:51.212Z,102598.97
2022-11-17T21:32:03.698Z,102583.02
2022-11-17T21:34:20.615Z,102586.14
2022-11-17T21:36:34.328Z,102591.20
2022-11-17T21:38:47.878Z,102589.63
2022-11-17T21:41:03.838Z,102589.02
2022-11-17T21:43:16.649Z,102586.45
2022-11-17T21:45:29.218Z,102570.25
2022-11-17T21:47:42.134Z,102570.33
2022-11-17T21:49:55.206Z,102577.03
2022-11-17T21:52:08.239Z,102576.52
2022-11-17T21:57:46.780Z,102574.02
2022-11-17T22:00:20.895Z,102579.77
2022-11-17T22:02:33.568Z,102576.52
2022-11-17T22:04:46.842Z,102569.67
2022-11-17T22:06:59.726Z,102572.98
2022-11-17T22:09:13.211Z,102574.84
2022-11-17T22:11:38.484Z,102587.38
2022-11-17T22:13:51.775Z,102582.27
2022-11-17T22:16:09.596Z,102576.64
2022-11-17T22:18:22.348Z,102585.33
2022-11-17T22:20:35.258Z,102578.49
2022-11-17T22:22:50.305Z,102576.79
2022-11-17T22:25:29.938Z,102587.81
2022-11-17T22:27:40.087Z,102577.50
2022-11-17T22:29:52.974Z,102585.77
2022-11-17T22:32:06.140Z,102571.72
2022-11-17T22:34:19.381Z,102577.29
2022-11-17T22:36:32.292Z,102576.41
2022-11-17T22:38:45.126Z,102579.63
2022-11-17T22:41:01.840Z,102576.80
2022-11-17T22:43:15.512Z,102583.57
2022-11-17T22:45:29.045Z,102592.75
2022-11-17T22:47:43.328Z,102585.41
2022-11-17T22:49:57.105Z,102580.81
2022-11-17T22:52:11.288Z,102585.29
2022-11-17T22:54:25.272Z,102582.75
2022-11-17T22:56:38.860Z,102586.64
2022-11-17T22:58:59.352Z,102590.63
2022-11-17T23:01:13.942Z,102598.27
2022-11-17T23:03:27.927Z,102597.65
2022-11-17T23:05:41.421Z,102597.51
2022-11-17T23:07:54.285Z,102598.20
2022-11-17T23:10:08.180Z,102600.75
2022-11-17T23:12:21.054Z,102604.25
2022-11-17T23:14:34.246Z,102596.12
2022-11-17T23:16:47.199Z,102595.25
2022-11-17T23:19:00.860Z,102601.13
2022-11-17T23:21:14.925Z,102616.58
2022-11-17T23:23:27.603Z,102616.41
2022-11-17T23:25:40.438Z,102624.25
2022-11-17T23:27:53.119Z,102618.44
2022-11-17T23:30:06.004Z,102614.30
2022-11-17T23:32:18.880Z,102608.68
2022-11-17T23:34:31.857Z,102613.20
2022-11-17T23:36:44.756Z,102611.10
2022-11-17T23:38:58.265Z,102610.46
2022-11-17T23:41:13.418Z,102611.88
2022-11-17T23:43:26.344Z,102632.35
2022-11-17T23:45:38.930Z,102617.27
2022-11-17T23:47:52.134Z,102623.02
2022-11-17T23:50:04.949Z,102613.29
2022-11-17T23:52:17.873Z,102631.29
2022-11-17T23:54:30.624Z,102618.52
2022-11-17T23:56:43.708Z,102612.02
2022-11-17T23:58:56.897Z,102634.13
